createdAt,value
2023-05-02T00:00:17.954Z,76.72
2023-05-02T00:01:18.245Z,77.01
2023-05-02T00:02:18.137Z,77.30
2023-05-02T00:03:18.126Z,77.21
2023-05-02T00:04:18.132Z,77.01
2023-05-02T00:05:18.069Z,77.88
2023-05-02T00:06:18.117Z,77.50
2023-05-02T00:07:18.126Z,77.59
2023-05-02T00:11:18.553Z,77.98
2023-05-02T00:12:18.318Z,77.40
2023-05-02T00:13:18.308Z,77.88
2023-05-02T00:14:18.343Z,77.88
2023-05-02T00:15:18.376Z,77.98
2023-05-02T00:17:19.026Z,77.78
2023-05-02T00:18:18.533Z,77.88
2023-05-02T00:19:18.499Z,77.78
2023-05-02T00:20:18.526Z,78.17
2023-05-02T00:21:18.679Z,77.78
2023-05-02T00:22:18.586Z,77.98
2023-05-02T00:23:18.926Z,77.98
2023-05-02T00:24:18.664Z,77.78
2023-05-02T00:25:18.679Z,77.78
2023-05-02T00:26:18.710Z,77.98
2023-05-02T00:27:18.741Z,77.78
2023-05-02T00:28:18.788Z,77.78
2023-05-02T00:29:18.805Z,77.88
2023-05-02T00:30:19.134Z,77.88
2023-05-02T00:31:18.943Z,78.27
2023-05-02T00:32:18.896Z,77.98
2023-05-02T00:33:19.041Z,77.88
2023-05-02T00:34:18.963Z,77.88
2023-05-02T00:35:18.991Z,77.78
2023-05-02T00:36:19.023Z,77.78
2023-05-02T00:37:19.358Z,78.08
2023-05-02T00:38:19.079Z,78.17
2023-05-02T00:39:19.118Z,77.98
2023-05-02T00:40:19.158Z,78.17
2023-05-02T00:41:19.178Z,78.08
2023-05-02T00:42:19.204Z,78.08
2023-05-02T00:43:19.231Z,78.17
2023-05-02T00:44:19.576Z,77.98
2023-05-02T00:45:19.298Z,77.78
2023-05-02T00:46:19.345Z,77.78
2023-05-02T00:47:19.355Z,78.36
2023-05-02T00:48:19.423Z,78.46
2023-05-02T00:49:19.430Z,77.88
2023-05-02T00:50:19.452Z,78.08
2023-05-02T00:51:19.788Z,77.21
2023-05-02T00:52:19.515Z,77.98
2023-05-02T00:53:19.539Z,77.88
2023-05-02T00:54:19.592Z,78.08
2023-05-02T00:55:19.600Z,77.50
2023-05-02T00:56:19.639Z,77.30
2023-05-02T00:57:19.659Z,77.69
2023-05-02T00:58:20.000Z,77.50
2023-05-02T00:59:19.729Z,77.11
2023-05-02T01:00:19.764Z,77.30
2023-05-02T01:01:19.907Z,77.21
2023-05-02T01:02:19.812Z,77.40
2023-05-02T01:03:20.226Z,77.30
2023-05-02T01:04:20.305Z,77.21
2023-05-02T01:05:20.312Z,77.69
2023-05-02T01:06:19.985Z,77.50
2023-05-02T01:07:20.007Z,77.40
2023-05-02T01:08:20.000Z,77.59
2023-05-02T01:10:20.064Z,77.50
2023-05-02T01:11:20.089Z,77.69
2023-05-02T01:12:20.432Z,77.88
2023-05-02T01:13:20.147Z,77.21
2023-05-02T01:14:20.206Z,77.50
2023-05-02T01:15:20.212Z,77.78
2023-05-02T01:16:20.278Z,77.78
2023-05-02T01:17:20.285Z,77.78
2023-05-02T01:18:20.296Z,77.78
2023-05-02T01:19:20.854Z,77.78
2023-05-02T01:20:20.357Z,77.88
2023-05-02T01:22:20.443Z,77.78
2023-05-02T01:23:20.451Z,78.08
2023-05-02T01:24:20.479Z,77.98
2023-05-02T01:25:20.534Z,78.17
2023-05-02T01:26:20.841Z,77.78
2023-05-02T01:28:20.603Z,77.69
2023-05-02T01:29:20.636Z,77.98
2023-05-02T01:30:20.671Z,77.69
2023-05-02T01:31:20.707Z,77.50
2023-05-02T01:33:21.066Z,77.59
2023-05-02T01:34:20.790Z,77.69
2023-05-02T01:36:20.844Z,77.40
2023-05-02T01:37:20.881Z,77.21
2023-05-02T01:39:21.260Z,77.21
2023-05-02T01:40:20.973Z,77.88
2023-05-02T01:41:20.995Z,77.30
2023-05-02T01:42:21.044Z,77.88
2023-05-02T01:43:21.064Z,78.36
2023-05-02T01:44:21.094Z,77.94
2023-05-02T01:45:21.427Z,77.88
2023-05-02T01:46:21.334Z,77.75
2023-05-02T01:47:21.309Z,78.13
2023-05-02T01:48:21.223Z,78.13
2023-05-02T01:49:21.269Z,78.52
2023-05-02T01:50:21.287Z,78.61
2023-05-02T01:52:21.338Z,78.42
2023-05-02T01:53:21.375Z,78.36
2023-05-02T01:54:21.394Z,78.42
2023-05-02T01:55:21.560Z,77.98
2023-05-02T01:56:21.467Z,77.84
2023-05-02T01:57:21.492Z,78.03
2023-05-02T01:58:21.817Z,77.94
2023-05-02T01:59:21.561Z,77.21
2023-05-02T02:00:21.601Z,77.88
2023-05-02T02:01:21.742Z,77.65
2023-05-02T02:03:21.734Z,78.17
2023-05-02T02:04:21.784Z,78.46
2023-05-02T02:05:21.729Z,78.03
2023-05-02T02:06:21.792Z,78.13
2023-05-02T02:07:21.795Z,78.23
2023-05-02T02:08:21.931Z,78.03
2023-05-02T02:09:21.853Z,78.33
2023-05-02T02:10:22.192Z,77.94
2023-05-02T02:11:21.936Z,78.03
2023-05-02T02:12:21.949Z,77.98
2023-05-02T02:13:22.000Z,78.03
2023-05-02T02:14:22.014Z,78.13
2023-05-02T02:15:22.051Z,77.75
2023-05-02T02:16:22.110Z,77.84
2023-05-02T02:17:22.398Z,77.84
2023-05-02T02:18:22.239Z,77.84
2023-05-02T02:19:22.153Z,78.03
2023-05-02T02:20:22.185Z,77.75
2023-05-02T02:21:22.224Z,77.46
2023-05-02T02:22:22.300Z,77.36
2023-05-02T02:23:22.291Z,77.36
2023-05-02T02:24:22.686Z,77.46
2023-05-02T02:25:22.339Z,78.13
2023-05-02T02:26:22.369Z,78.23
2023-05-02T02:27:22.734Z,77.65
2023-05-02T02:28:22.437Z,78.33
2023-05-02T02:29:22.572Z,78.33
2023-05-02T02:31:22.897Z,78.42
2023-05-02T02:32:22.577Z,77.94
2023-05-02T02:33:22.596Z,78.61
2023-05-02T02:34:22.659Z,78.33
2023-05-02T02:35:22.640Z,78.61
2023-05-02T02:36:22.674Z,78.52
2023-05-02T02:37:22.710Z,79.10
2023-05-02T02:38:23.032Z,78.81
2023-05-02T02:39:22.774Z,78.91
2023-05-02T02:40:22.793Z,78.91
2023-05-02T02:41:22.821Z,79.10
2023-05-02T02:42:22.859Z,79.10
2023-05-02T02:43:22.903Z,78.91
2023-05-02T02:45:23.253Z,78.91
2023-05-02T02:46:23.023Z,79.10
2023-05-02T02:47:23.004Z,78.91
2023-05-02T02:48:23.038Z,78.91
2023-05-02T02:52:23.458Z,78.91
2023-05-02T02:53:23.187Z,78.81
2023-05-02T02:54:26.536Z,79.10
2023-05-02T02:55:23.249Z,79.39
2023-05-02T02:56:23.278Z,79.00
2023-05-02T02:57:23.310Z,79.19
2023-05-02T02:58:23.664Z,79.19
2023-05-02T02:59:23.396Z,79.19
2023-05-02T03:00:23.403Z,79.29
2023-05-02T03:01:23.511Z,79.10
2023-05-02T03:02:23.460Z,79.10
2023-05-02T03:03:23.572Z,79.19
2023-05-02T03:04:23.814Z,79.19
2023-05-02T03:06:23.644Z,79.19
2023-05-02T03:07:23.621Z,79.10
2023-05-02T03:08:23.644Z,79.19
2023-05-02T03:10:24.037Z,79.19
2023-05-02T03:13:23.886Z,79.19
2023-05-02T03:16:24.299Z,78.91
2023-05-02T03:17:26.254Z,79.00
2023-05-02T03:18:23.945Z,79.00
2023-05-02T03:19:23.983Z,79.39
2023-05-02T03:20:24.008Z,79.10
2023-05-02T03:21:24.035Z,79.19
2023-05-02T03:22:24.077Z,79.49
2023-05-02T03:23:24.395Z,79.29
2023-05-02T03:24:24.142Z,79.19
2023-05-02T03:25:24.152Z,79.19
2023-05-02T03:26:24.212Z,79.39
2023-05-02T03:27:24.216Z,78.91
2023-05-02T03:28:24.245Z,78.91
2023-05-02T03:29:24.283Z,78.91
2023-05-02T03:30:24.641Z,78.91
2023-05-02T03:34:24.449Z,78.91
2023-05-02T03:35:24.521Z,79.10
2023-05-02T03:36:24.493Z,79.29
2023-05-02T03:37:24.821Z,78.91
2023-05-02T03:38:24.548Z,78.91
2023-05-02T03:39:24.586Z,78.71
2023-05-02T03:40:24.713Z,78.81
2023-05-02T03:41:24.636Z,78.91
2023-05-02T03:44:25.059Z,78.91
2023-05-02T03:45:24.779Z,78.91
2023-05-02T03:46:24.830Z,78.91
2023-05-02T03:48:24.847Z,79.10
2023-05-02T03:51:25.271Z,78.91
2023-05-02T03:52:24.972Z,78.91
2023-05-02T03:53:25.012Z,78.91
2023-05-02T03:54:25.143Z,79.10
2023-05-02T03:55:25.089Z,78.81
2023-05-02T03:56:25.113Z,78.81
2023-05-02T03:57:25.126Z,78.71
2023-05-02T03:58:25.464Z,78.91
2023-05-02T03:59:25.185Z,78.91
2023-05-02T04:00:25.216Z,78.91
2023-05-02T04:01:25.244Z,79.19
2023-05-02T04:02:25.409Z,78.91
2023-05-02T04:03:26.594Z,78.91
2023-05-02T04:04:25.370Z,79.10
2023-05-02T04:05:25.668Z,78.91
2023-05-02T04:06:25.486Z,78.71
2023-05-02T04:07:25.451Z,78.91
2023-05-02T04:08:25.565Z,78.91
2023-05-02T04:09:25.730Z,79.10
2023-05-02T04:10:25.529Z,79.19
2023-05-02T04:11:25.550Z,79.19
2023-05-02T04:12:25.880Z,79.10
2023-05-02T04:13:25.610Z,78.91
2023-05-02T04:14:25.644Z,78.91
2023-05-02T04:15:25.678Z,79.10
2023-05-02T04:16:25.721Z,78.91
2023-05-02T04:17:25.768Z,78.91
2023-05-02T04:18:26.066Z,79.19
2023-05-02T04:19:25.806Z,78.91
2023-05-02T04:20:25.830Z,78.71
2023-05-02T04:21:25.870Z,79.00
2023-05-02T04:22:25.882Z,78.61
2023-05-02T04:23:25.940Z,78.91
2023-05-02T04:24:25.945Z,79.10
2023-05-02T04:25:25.982Z,79.10
2023-05-02T04:26:26.017Z,79.00
2023-05-02T04:27:26.038Z,78.33
2023-05-02T04:28:26.087Z,78.71
2023-05-02T04:29:26.113Z,79.10
2023-05-02T04:30:26.436Z,79.00
2023-05-02T04:31:26.308Z,78.91
2023-05-02T04:32:26.274Z,78.91
2023-05-02T04:33:26.231Z,79.00
2023-05-02T04:34:26.250Z,78.91
2023-05-02T04:35:26.307Z,78.91
2023-05-02T04:36:26.314Z,79.10
2023-05-02T04:37:26.656Z,78.71
2023-05-02T04:38:26.380Z,78.71
2023-05-02T04:39:26.424Z,78.33
2023-05-02T04:42:26.495Z,79.10
2023-05-02T04:43:26.537Z,79.00
2023-05-02T04:44:26.858Z,79.10
2023-05-02T04:45:26.593Z,79.19
2023-05-02T04:46:26.640Z,78.42
2023-05-02T04:47:26.689Z,78.42
2023-05-02T04:48:26.791Z,78.33
2023-05-02T04:49:26.713Z,78.33
2023-05-02T04:50:26.761Z,78.42
2023-05-02T04:51:26.777Z,78.33
2023-05-02T04:52:26.791Z,78.33
2023-05-02T04:53:26.827Z,78.03
2023-05-02T04:54:26.870Z,78.42
2023-05-02T04:55:26.905Z,78.56
2023-05-02T04:56:26.930Z,78.36
2023-05-02T04:57:27.260Z,78.42
2023-05-02T04:58:27.041Z,78.91
2023-05-02T04:59:27.010Z,78.52
2023-05-02T05:00:27.045Z,78.61
2023-05-02T05:01:27.104Z,78.56
2023-05-02T05:02:27.311Z,78.52
2023-05-02T05:03:27.275Z,78.52
2023-05-02T05:05:27.214Z,78.61
2023-05-02T05:06:27.302Z,78.23
2023-05-02T05:07:27.265Z,78.52
2023-05-02T05:08:27.283Z,78.56
2023-05-02T05:09:27.321Z,78.23
2023-05-02T05:10:27.656Z,78.52
2023-05-02T05:11:27.401Z,78.52
2023-05-02T05:12:27.417Z,78.33
2023-05-02T05:13:27.441Z,78.33
2023-05-02T05:14:27.474Z,78.61
2023-05-02T05:16:27.864Z,78.33
2023-05-02T05:17:27.608Z,78.61
2023-05-02T05:18:27.597Z,78.23
2023-05-02T05:20:27.650Z,78.33
2023-05-02T05:22:28.020Z,77.94
2023-05-02T05:23:27.748Z,77.84
2023-05-02T05:24:27.776Z,78.23
2023-05-02T05:25:27.813Z,78.42
2023-05-02T05:26:27.843Z,78.61
2023-05-02T05:27:27.964Z,78.42
2023-05-02T05:28:28.213Z,78.33
2023-05-02T05:29:27.926Z,78.23
2023-05-02T05:30:27.965Z,77.84
2023-05-02T05:31:28.145Z,78.33
2023-05-02T05:32:28.110Z,77.98
2023-05-02T05:33:28.093Z,77.65
2023-05-02T05:34:28.091Z,77.84
2023-05-02T05:35:28.405Z,78.23
2023-05-02T05:36:28.137Z,78.13
2023-05-02T05:37:28.202Z,77.50
2023-05-02T05:38:28.192Z,77.30
2023-05-02T05:40:28.289Z,77.46
2023-05-02T05:41:28.295Z,77.21
2023-05-02T05:42:28.661Z,77.75
2023-05-02T05:43:28.371Z,77.36
2023-05-02T05:44:28.382Z,77.78
2023-05-02T05:45:28.415Z,77.21
2023-05-02T05:46:28.494Z,77.36
2023-05-02T05:47:28.656Z,77.84
2023-05-02T05:48:28.579Z,77.65
2023-05-02T05:50:29.886Z,77.65
2023-05-02T05:51:28.597Z,77.36
2023-05-02T05:52:28.622Z,77.94
2023-05-02T05:53:28.650Z,78.13
2023-05-02T05:54:28.689Z,77.46
2023-05-02T05:55:28.713Z,77.46
2023-05-02T05:56:28.759Z,77.46
2023-05-02T05:57:29.084Z,77.75
2023-05-02T05:58:28.811Z,77.55
2023-05-02T05:59:28.991Z,77.17
2023-05-02T06:01:28.902Z,77.46
2023-05-02T06:02:29.274Z,77.26
2023-05-02T06:03:29.077Z,77.36
2023-05-02T06:04:29.316Z,78.03
2023-05-02T06:05:29.028Z,78.03
2023-05-02T06:06:29.088Z,77.65
2023-05-02T06:07:29.081Z,77.94
2023-05-02T06:08:29.220Z,78.33
2023-05-02T06:09:29.186Z,78.42
2023-05-02T06:10:29.230Z,77.65
2023-05-02T06:11:29.530Z,78.42
2023-05-02T06:12:29.231Z,78.33
2023-05-02T06:13:29.266Z,78.61
2023-05-02T06:14:29.295Z,78.61
2023-05-02T06:15:29.352Z,78.42
2023-05-02T06:16:29.393Z,78.23
2023-05-02T06:17:29.421Z,78.61
2023-05-02T06:18:29.723Z,78.33
2023-05-02T06:19:29.443Z,78.33
2023-05-02T06:20:29.491Z,78.33
2023-05-02T06:22:29.579Z,78.33
2023-05-02T06:23:29.628Z,78.85
2023-05-02T06:24:29.609Z,78.61
2023-05-02T06:25:29.929Z,78.42
2023-05-02T06:26:29.685Z,78.61
2023-05-02T06:27:30.682Z,78.33
2023-05-02T06:29:29.750Z,78.03
2023-05-02T06:30:29.788Z,78.33
2023-05-02T06:32:30.209Z,77.36
2023-05-02T06:33:29.874Z,77.46
2023-05-02T06:34:29.937Z,77.75
2023-05-02T06:35:29.940Z,77.75
2023-05-02T06:36:29.967Z,78.42
2023-05-02T06:37:29.996Z,78.46
2023-05-02T06:38:30.056Z,78.42
2023-05-02T06:39:30.351Z,78.33
2023-05-02T06:40:30.093Z,78.13
2023-05-02T06:42:30.144Z,78.42
2023-05-02T06:44:30.236Z,77.36
2023-05-02T06:45:30.280Z,77.94
2023-05-02T06:46:30.807Z,77.07
2023-05-02T06:47:30.381Z,77.17
2023-05-02T06:48:30.370Z,77.11
2023-05-02T06:49:30.366Z,77.46
2023-05-02T06:51:30.471Z,77.75
2023-05-02T06:52:30.450Z,77.94
2023-05-02T06:53:32.914Z,77.36
2023-05-02T06:55:30.535Z,78.03
2023-05-02T06:56:30.567Z,78.23
2023-05-02T06:57:30.598Z,78.61
2023-05-02T06:58:30.626Z,78.33
2023-05-02T06:59:30.658Z,78.33
2023-05-02T07:00:30.712Z,78.33
2023-05-02T07:01:30.800Z,78.33
2023-05-02T07:02:30.791Z,78.23
2023-05-02T07:03:30.782Z,78.03
2023-05-02T07:04:30.867Z,78.13
2023-05-02T07:06:30.924Z,77.75
2023-05-02T07:07:30.904Z,77.98
2023-05-02T07:08:30.937Z,77.84
2023-05-02T07:09:30.962Z,77.40
2023-05-02T07:11:31.029Z,78.03
2023-05-02T07:12:31.056Z,78.42
2023-05-02T07:14:31.111Z,77.78
2023-05-02T07:15:31.153Z,77.21
2023-05-02T07:16:31.204Z,77.21
2023-05-02T07:17:31.255Z,77.40
2023-05-02T07:18:31.249Z,77.40
2023-05-02T07:19:31.265Z,77.50
2023-05-02T07:21:31.346Z,77.98
2023-05-02T07:22:31.361Z,77.21
2023-05-02T07:24:31.424Z,77.40
2023-05-02T07:25:31.448Z,77.40
2023-05-02T07:26:31.483Z,77.59
2023-05-02T07:27:31.522Z,77.01
2023-05-02T07:28:31.550Z,77.11
2023-05-02T07:29:31.577Z,77.40
2023-05-02T07:30:31.601Z,77.69
2023-05-02T07:31:31.671Z,77.40
2023-05-02T07:32:31.944Z,76.72
2023-05-02T07:33:31.699Z,76.92
2023-05-02T07:34:31.738Z,77.59
2023-05-02T07:35:31.768Z,77.78
2023-05-02T07:36:31.789Z,77.11
2023-05-02T07:37:34.157Z,77.40
2023-05-02T07:38:31.848Z,77.40
2023-05-02T07:39:31.985Z,77.40
2023-05-02T07:40:31.914Z,77.21
2023-05-02T07:41:31.941Z,77.21
2023-05-02T07:42:31.989Z,77.40
2023-05-02T07:43:32.054Z,77.30
2023-05-02T07:44:32.104Z,77.50
2023-05-02T07:45:32.069Z,77.69
2023-05-02T07:46:32.150Z,77.11
2023-05-02T07:47:32.219Z,76.72
2023-05-02T07:48:32.165Z,77.11
2023-05-02T07:49:32.191Z,77.21
2023-05-02T07:50:32.223Z,77.01
2023-05-02T07:51:32.250Z,76.82
2023-05-02T07:52:32.291Z,76.92
2023-05-02T07:53:32.451Z,76.82
2023-05-02T07:54:32.354Z,76.92
2023-05-02T07:55:32.377Z,77.11
2023-05-02T07:57:32.442Z,76.76
2023-05-02T07:58:32.471Z,76.72
2023-05-02T07:59:32.501Z,76.67
2023-05-02T08:01:32.557Z,76.82
2023-05-02T08:02:32.686Z,76.18
2023-05-02T08:03:32.772Z,76.72
2023-05-02T08:04:32.676Z,76.72
2023-05-02T08:05:32.684Z,76.82
2023-05-02T08:06:32.887Z,76.63
2023-05-02T08:07:32.752Z,76.82
2023-05-02T08:09:32.839Z,76.72
2023-05-02T08:10:32.923Z,76.63
2023-05-02T08:11:32.870Z,76.82
2023-05-02T08:12:32.906Z,76.63
2023-05-02T08:13:32.934Z,76.92
2023-05-02T08:14:32.962Z,76.72
2023-05-02T08:15:33.054Z,76.67
2023-05-02T08:17:33.118Z,76.92
2023-05-02T08:18:33.094Z,76.86
2023-05-02T08:19:33.132Z,76.72
2023-05-02T08:20:33.147Z,76.76
2023-05-02T08:22:33.208Z,76.72
2023-05-02T08:23:33.244Z,76.63
2023-05-02T08:24:33.275Z,76.57
2023-05-02T08:25:33.329Z,76.67
2023-05-02T08:27:33.381Z,76.37
2023-05-02T08:28:33.423Z,76.37
2023-05-02T08:29:33.439Z,76.18
2023-05-02T08:30:33.472Z,76.05
2023-05-02T08:31:33.623Z,75.79
2023-05-02T08:32:33.553Z,76.05
2023-05-02T08:33:33.548Z,76.37
2023-05-02T08:34:33.579Z,76.37
2023-05-02T08:35:33.611Z,76.47
2023-05-02T08:36:33.652Z,76.28
2023-05-02T08:37:33.693Z,75.79
2023-05-02T08:39:33.736Z,75.79
2023-05-02T08:40:40.959Z,75.89
2023-05-02T08:41:33.814Z,75.79
2023-05-02T08:42:33.829Z,75.99
2023-05-02T08:43:33.867Z,75.79
2023-05-02T08:44:33.898Z,75.31
2023-05-02T08:45:33.930Z,75.12
2023-05-02T08:47:34.013Z,75.41
2023-05-02T08:49:34.355Z,75.79
2023-05-02T08:50:34.083Z,75.70
2023-05-02T08:52:34.139Z,76.57
2023-05-02T08:53:34.190Z,75.99
2023-05-02T08:54:34.208Z,75.89
2023-05-02T08:56:34.563Z,75.22
2023-05-02T08:57:34.314Z,75.89
2023-05-02T08:58:34.352Z,75.60
2023-05-02T08:59:34.361Z,75.89
2023-05-02T09:00:34.385Z,75.99
2023-05-02T09:02:34.763Z,75.89
2023-05-02T09:03:34.493Z,76.09
2023-05-02T09:04:34.564Z,75.79
2023-05-02T09:05:34.569Z,75.60
2023-05-02T09:06:34.671Z,75.79
2023-05-02T09:07:34.604Z,75.31
2023-05-02T09:08:34.946Z,75.12
2023-05-02T09:09:34.699Z,75.22
2023-05-02T09:10:34.706Z,75.41
2023-05-02T09:11:34.757Z,75.22
2023-05-02T09:12:34.775Z,75.31
2023-05-02T09:13:34.820Z,75.12
2023-05-02T09:14:35.127Z,74.64
2023-05-02T09:15:34.876Z,74.73
2023-05-02T09:16:34.947Z,75.22
2023-05-02T09:17:34.948Z,75.45
2023-05-02T09:18:34.945Z,74.83
2023-05-02T09:19:34.982Z,74.48
2023-05-02T09:20:35.319Z,75.12
2023-05-02T09:21:35.046Z,75.31
2023-05-02T09:22:35.111Z,74.77
2023-05-02T09:23:35.101Z,74.77
2023-05-02T09:24:35.144Z,74.96
2023-05-02T09:25:35.176Z,74.96
2023-05-02T09:26:35.212Z,74.48
2023-05-02T09:27:35.529Z,74.58
2023-05-02T09:28:35.288Z,74.58
2023-05-02T09:29:35.365Z,74.19
2023-05-02T09:30:35.409Z,74.19
2023-05-02T09:31:53.992Z,74.10
2023-05-02T09:32:35.403Z,74.19
2023-05-02T09:33:35.428Z,74.19
2023-05-02T09:34:35.747Z,74.48
2023-05-02T09:35:35.482Z,74.48
2023-05-02T09:36:35.531Z,74.19
2023-05-02T09:37:35.631Z,74.19
2023-05-02T09:38:35.580Z,73.71
2023-05-02T09:40:35.946Z,73.80
2023-05-02T09:42:35.697Z,74.29
2023-05-02T09:43:35.733Z,74.29
2023-05-02T09:44:35.829Z,74.29
2023-05-02T09:45:35.813Z,73.55
2023-05-02T09:46:35.922Z,73.55
2023-05-02T09:48:36.196Z,74.13
2023-05-02T09:49:35.927Z,74.04
2023-05-02T09:50:35.968Z,74.13
2023-05-02T09:52:36.021Z,74.32
2023-05-02T09:53:36.048Z,73.16
2023-05-02T09:54:36.083Z,73.26
2023-05-02T09:55:36.415Z,73.55
2023-05-02T09:56:36.145Z,73.55
2023-05-02T09:57:36.186Z,73.65
2023-05-02T09:58:36.209Z,73.74
2023-05-02T09:59:36.236Z,73.74
2023-05-02T10:00:36.272Z,72.91
2023-05-02T10:01:36.380Z,73.10
2023-05-02T10:02:37.802Z,72.81
2023-05-02T10:03:36.366Z,72.81
2023-05-02T10:04:36.474Z,72.52
2023-05-02T10:05:36.426Z,71.84
2023-05-02T10:06:36.513Z,72.14
2023-05-02T10:07:36.498Z,72.24
2023-05-02T10:08:36.522Z,72.33
2023-05-02T10:09:36.893Z,73.01
2023-05-02T10:10:36.596Z,72.42
2023-05-02T10:12:36.653Z,71.75
2023-05-02T10:13:36.684Z,71.84
2023-05-02T10:15:37.125Z,71.81
2023-05-02T10:16:36.820Z,71.94
2023-05-02T10:17:36.844Z,72.52
2023-05-02T10:18:36.848Z,72.72
2023-05-02T10:19:36.886Z,72.42
2023-05-02T10:20:36.908Z,72.42
2023-05-02T10:21:37.242Z,72.42
2023-05-02T10:22:37.106Z,71.94
2023-05-02T10:23:37.008Z,71.84
2023-05-02T10:24:37.078Z,72.42
2023-05-02T10:25:37.067Z,71.66
2023-05-02T10:26:37.099Z,71.75
2023-05-02T10:27:37.434Z,72.04
2023-05-02T10:28:37.175Z,72.33
2023-05-02T10:29:37.199Z,72.24
2023-05-02T10:30:37.229Z,72.24
2023-05-02T10:31:37.292Z,72.24
2023-05-02T10:32:37.356Z,71.94
2023-05-02T10:34:37.676Z,72.04
2023-05-02T10:36:37.437Z,72.04
2023-05-02T10:37:37.454Z,71.98
2023-05-02T10:38:37.487Z,71.78
2023-05-02T10:39:37.520Z,71.59
2023-05-02T10:40:37.857Z,71.20
2023-05-02T10:41:37.587Z,71.30
2023-05-02T10:42:37.630Z,71.50
2023-05-02T10:43:37.649Z,71.20
2023-05-02T10:44:37.715Z,71.20
2023-05-02T10:45:37.717Z,71.01
2023-05-02T10:46:37.803Z,70.82
2023-05-02T10:47:38.090Z,70.53
2023-05-02T10:48:37.844Z,70.62
2023-05-02T10:49:37.846Z,70.72
2023-05-02T10:50:37.925Z,71.01
2023-05-02T10:51:37.903Z,70.82
2023-05-02T10:52:37.948Z,70.82
2023-05-02T10:54:38.304Z,70.82
2023-05-02T10:55:38.064Z,70.92
2023-05-02T10:56:38.214Z,71.01
2023-05-02T10:57:38.100Z,70.62
2023-05-02T10:58:38.134Z,70.53
2023-05-02T10:59:38.172Z,70.62
2023-05-02T11:00:38.228Z,70.76
2023-05-02T11:01:38.549Z,70.34
2023-05-02T11:02:38.324Z,70.37
2023-05-02T11:03:38.358Z,69.98
2023-05-02T11:04:38.331Z,69.89
2023-05-02T11:05:38.388Z,70.18
2023-05-02T11:06:38.460Z,69.98
2023-05-02T11:07:38.425Z,70.08
2023-05-02T11:08:38.464Z,70.08
2023-05-02T11:09:38.542Z,69.98
2023-05-02T11:10:38.567Z,70.08
2023-05-02T11:11:38.584Z,70.37
2023-05-02T11:12:38.586Z,70.37
2023-05-02T11:14:38.670Z,70.37
2023-05-02T11:15:38.692Z,70.37
2023-05-02T11:16:38.785Z,70.34
2023-05-02T11:17:38.759Z,70.14
2023-05-02T11:19:38.856Z,70.08
2023-05-02T11:20:38.850Z,70.47
2023-05-02T11:21:38.889Z,70.04
2023-05-02T11:22:38.938Z,70.18
2023-05-02T11:23:38.949Z,69.89
2023-05-02T11:24:38.987Z,70.08
2023-05-02T11:25:39.022Z,70.08
2023-05-02T11:26:39.047Z,70.18
2023-05-02T11:27:39.080Z,70.14
2023-05-02T11:28:39.140Z,70.18
2023-05-02T11:29:39.147Z,70.04
2023-05-02T11:31:39.243Z,70.08
2023-05-02T11:32:39.380Z,70.18
2023-05-02T11:33:39.287Z,69.79
2023-05-02T11:34:39.313Z,69.59
2023-05-02T11:35:39.398Z,70.08
2023-05-02T11:36:39.403Z,69.69
2023-05-02T11:37:39.433Z,69.79
2023-05-02T11:38:39.574Z,69.69
2023-05-02T11:39:39.508Z,69.79
2023-05-02T11:40:39.530Z,69.40
2023-05-02T11:41:39.569Z,69.89
2023-05-02T11:42:39.586Z,69.40
2023-05-02T11:44:39.654Z,69.69
2023-05-02T11:45:39.681Z,69.50
2023-05-02T11:46:39.867Z,69.59
2023-05-02T11:47:39.777Z,69.69
2023-05-02T11:48:39.786Z,69.11
2023-05-02T11:49:39.815Z,69.21
2023-05-02T11:51:39.869Z,69.50
2023-05-02T11:52:39.928Z,69.59
2023-05-02T11:54:40.007Z,69.59
2023-05-02T11:55:40.018Z,69.59
2023-05-02T11:56:40.041Z,69.11
2023-05-02T11:57:40.101Z,68.82
2023-05-02T11:58:40.116Z,69.69
2023-05-02T11:59:40.133Z,69.21
2023-05-02T12:00:40.205Z,69.01
2023-05-02T12:01:40.207Z,69.01
2023-05-02T12:02:40.366Z,69.59
2023-05-02T12:03:40.419Z,69.59
2023-05-02T12:04:40.309Z,69.31
2023-05-02T12:05:40.422Z,69.21
2023-05-02T12:06:40.484Z,69.11
2023-05-02T12:07:40.595Z,69.11
2023-05-02T12:08:40.484Z,69.50
2023-05-02T12:09:40.503Z,69.11
2023-05-02T12:10:40.537Z,69.24
2023-05-02T12:11:40.562Z,69.11
2023-05-02T12:12:40.579Z,68.91
2023-05-02T12:13:40.616Z,69.11
2023-05-02T12:14:41.133Z,68.91
2023-05-02T12:15:40.724Z,68.91
2023-05-02T12:16:40.844Z,69.11
2023-05-02T12:17:40.772Z,69.11
2023-05-02T12:18:40.767Z,69.01
2023-05-02T12:19:40.803Z,68.66
2023-05-02T12:20:40.864Z,68.56
2023-05-02T12:21:40.875Z,68.76
2023-05-02T12:23:40.953Z,68.56
2023-05-02T12:24:41.080Z,68.56
2023-05-02T12:25:41.004Z,68.66
2023-05-02T12:26:41.051Z,68.37
2023-05-02T12:27:41.078Z,68.85
2023-05-02T12:28:41.136Z,68.95
2023-05-02T12:29:41.175Z,68.66
2023-05-02T12:30:41.168Z,68.95
2023-05-02T12:31:41.306Z,68.95
2023-05-02T12:32:41.265Z,68.56
2023-05-02T12:33:41.274Z,68.66
2023-05-02T12:34:41.320Z,68.56
2023-05-02T12:35:41.356Z,68.76
2023-05-02T12:36:41.480Z,68.56
2023-05-02T12:37:41.403Z,68.37
2023-05-02T12:38:41.450Z,68.66
2023-05-02T12:39:41.477Z,68.66
2023-05-02T12:40:41.504Z,68.66
2023-05-02T12:41:41.574Z,68.27
2023-05-02T12:42:41.620Z,68.66
2023-05-02T12:43:41.625Z,68.37
2023-05-02T12:44:41.631Z,68.37
2023-05-02T12:45:41.673Z,68.66
2023-05-02T12:46:41.736Z,68.85
2023-05-02T12:47:41.820Z,68.37
2023-05-02T12:48:41.783Z,68.66
2023-05-02T12:49:41.959Z,68.18
2023-05-02T12:50:41.845Z,68.08
2023-05-02T12:51:41.870Z,68.18
2023-05-02T12:52:41.912Z,68.27
2023-05-02T12:53:41.963Z,68.18
2023-05-02T12:54:41.969Z,68.27
2023-05-02T12:55:42.007Z,68.08
2023-05-02T12:56:42.044Z,68.27
2023-05-02T12:57:42.068Z,68.37
2023-05-02T12:58:42.124Z,68.47
2023-05-02T12:59:42.145Z,68.47
2023-05-02T13:00:42.882Z,68.27
2023-05-02T13:01:42.246Z,68.18
2023-05-02T13:02:42.299Z,68.08
2023-05-02T13:03:42.483Z,67.79
2023-05-02T13:04:42.316Z,68.08
2023-05-02T13:05:42.353Z,67.79
2023-05-02T13:06:42.846Z,67.79
2023-05-02T13:07:42.414Z,67.69
2023-05-02T13:08:42.442Z,67.79
2023-05-02T13:09:42.500Z,67.88
2023-05-02T13:10:42.526Z,67.88
2023-05-02T13:11:42.780Z,67.88
2023-05-02T13:12:43.748Z,67.88
2023-05-02T13:13:42.617Z,67.79
2023-05-02T13:14:42.699Z,68.18
2023-05-02T13:15:42.673Z,68.08
2023-05-02T13:16:42.910Z,67.98
2023-05-02T13:17:42.913Z,68.08
2023-05-02T13:18:44.650Z,68.08
2023-05-02T13:19:50.483Z,68.08
2023-05-02T13:20:42.860Z,68.18
2023-05-02T13:21:42.877Z,67.98
2023-05-02T13:22:42.924Z,68.08
2023-05-02T13:23:42.951Z,67.98
2023-05-02T13:24:43.880Z,67.98
2023-05-02T13:25:43.115Z,68.08
2023-05-02T13:26:43.042Z,68.08
2023-05-02T13:27:43.095Z,67.88
2023-05-02T13:28:43.106Z,68.18
2023-05-02T13:29:43.146Z,68.18
2023-05-02T13:30:43.273Z,67.72
2023-05-02T13:31:43.235Z,67.69
2023-05-02T13:32:43.291Z,67.82
2023-05-02T13:33:43.275Z,67.72
2023-05-02T13:34:43.338Z,67.82
2023-05-02T13:35:43.342Z,67.63
2023-05-02T13:36:43.388Z,67.92
2023-05-02T13:37:43.430Z,67.92
2023-05-02T13:38:43.454Z,67.63
2023-05-02T13:39:43.484Z,67.82
2023-05-02T13:40:43.510Z,67.72
2023-05-02T13:41:43.548Z,67.60
2023-05-02T13:42:43.597Z,67.53
2023-05-02T13:43:43.617Z,67.53
2023-05-02T13:44:43.660Z,67.63
2023-05-02T13:45:43.771Z,67.53
2023-05-02T13:46:43.804Z,67.63
2023-05-02T13:47:43.782Z,67.24
2023-05-02T13:48:43.806Z,67.53
2023-05-02T13:49:43.809Z,67.44
2023-05-02T13:50:43.842Z,67.34
2023-05-02T13:51:43.879Z,67.44
2023-05-02T13:52:43.914Z,67.34
2023-05-02T13:53:43.957Z,67.63
2023-05-02T13:54:43.998Z,67.34
2023-05-02T13:55:44.020Z,67.34
2023-05-02T13:56:44.062Z,67.44
2023-05-02T13:57:44.091Z,67.34
2023-05-02T13:58:44.119Z,67.53
2023-05-02T13:59:44.286Z,67.53
2023-05-02T14:00:44.215Z,67.53
2023-05-02T14:01:44.247Z,67.34
2023-05-02T14:02:44.349Z,67.34
2023-05-02T14:03:44.395Z,67.63
2023-05-02T14:04:44.340Z,67.34
2023-05-02T14:06:44.486Z,67.92
2023-05-02T14:07:44.424Z,67.63
2023-05-02T14:08:44.457Z,67.44
2023-05-02T14:09:44.499Z,67.92
2023-05-02T14:10:44.527Z,67.82
2023-05-02T14:11:44.557Z,67.72
2023-05-02T14:12:44.592Z,67.53
2023-05-02T14:14:44.672Z,67.44